Terminal Aerodrome Forecast
Issued by NWS Wakefield, VA

Home | Current Version | Previous Version | Text Only | Print | Product List | Glossary On
Versions: 1 2 3 4 5 6 7 8 9 10 11 12 13 14 15 16 17 18 19 20 21 22 23 24 25 26 27 28 29 30 31 32 33 34 35
942
FTUS41 KAKQ 230748 AAD
TAFORF
TAF AMD
KORF 230748Z 2308/2406 05010KT 2SM -SHRA BR OVC003
      TEMPO 2308/2309 1/2SM -SHRA FG OVC002
     FM230900 05012G20KT 1SM SHRA BR OVC003
     FM231100 08015G25KT 2SM -SHRA BR OVC003
     FM231400 13011G18KT 3SM -SHRA BR OVC003
     FM231700 20008KT P6SM OVC007
     FM232000 33004KT P6SM BKN020
     FM240300 32006KT P6SM OVC004=

USA.gov is the U.S. government's official web portal to all federal, state and local government web resources and services.